Time;durP1;ratioP1;P1;durP2;ratioP2;P2;SDS_P1;SDS_P2;PMS_P1;PMS_P2;Temp;Humidity;BMP_temperature;BMP_pressure;BME280_temperature;BME280_humidity;BME280_pressure;Samples;Min_cycle;Max_cycle;Signal;HPM_P1;HPM_P2
2022/05/04 00:01:43;;;;;;;41.85;27.45;;;;;;;9.43;57.82;98474.31;5048902;28;20021;-76
2022/05/04 00:04:08;;;;;;;41.78;26.90;;;;;;;9.43;57.47;98477.06;5048840;28;20017;-77
2022/05/04 00:06:34;;;;;;;37.58;25.15;;;;;;;9.43;57.99;98477.06;5048580;28;20025;-76
2022/05/04 00:08:59;;;;;;;41.50;26.65;;;;;;;9.44;58.44;98481.44;5048077;28;20036;-76
2022/05/04 00:11:24;;;;;;;39.40;25.40;;;;;;;9.47;58.24;98481.69;5048791;28;20025;-77
2022/05/04 00:13:50;;;;;;;47.92;27.90;;;;;;;9.51;58.77;98477.28;5048182;28;20573;-76
2022/05/04 00:16:15;;;;;;;46.97;27.20;;;;;;;9.57;58.82;98483.50;5048628;28;20044;-76
2022/05/04 00:18:41;;;;;;;45.70;27.50;;;;;;;9.59;58.44;98475.81;5048226;28;20382;-77
2022/05/04 00:21:07;;;;;;;53.38;27.70;;;;;;;9.62;58.43;98480.72;5048433;28;20021;-77
2022/05/04 00:23:33;;;;;;;45.47;27.38;;;;;;;9.65;58.48;98474.66;5048237;28;20025;-77
2022/05/04 00:25:58;;;;;;;52.58;28.52;;;;;;;9.68;58.45;98485.06;5048754;28;20108;-77
2022/05/04 00:28:24;;;;;;;45.45;26.20;;;;;;;9.73;58.65;98484.16;5047702;28;20024;-77
2022/05/04 00:30:49;;;;;;;43.40;26.50;;;;;;;9.77;58.22;98481.69;5049843;28;20020;-77
2022/05/04 00:33:15;;;;;;;41.72;25.50;;;;;;;9.80;59.10;98487.38;5052072;28;20048;-77
2022/05/04 00:35:40;;;;;;;40.85;24.88;;;;;;;9.85;58.90;98480.22;5050431;28;20060;-76
2022/05/04 00:38:06;;;;;;;39.03;23.63;;;;;;;9.89;59.49;98490.28;5051356;28;20017;-77
2022/05/04 00:40:31;;;;;;;33.67;21.20;;;;;;;9.94;59.43;98490.25;5051802;28;20457;-77
2022/05/04 00:42:57;;;;;;;32.65;20.60;;;;;;;9.97;58.47;98499.81;5052189;28;20055;-76
2022/05/04 00:45:22;;;;;;;33.65;22.00;;;;;;;9.99;58.61;98486.63;5052197;28;20497;-76
2022/05/04 00:47:48;;;;;;;33.85;20.63;;;;;;;10.01;58.39;98487.13;5051609;28;20047;-76
2022/05/04 00:50:13;;;;;;;32.95;20.00;;;;;;;10.02;58.45;98491.50;5051708;28;20033;-76
2022/05/04 00:52:43;;;;;;;28.38;19.80;;;;;;;10.07;58.99;98493.41;5051844;28;20466;-77
2022/05/04 00:55:09;;;;;;;30.02;20.70;;;;;;;10.10;59.38;98492.81;5049825;28;20021;-76
2022/05/04 01:00:22;;;;;;;31.90;21.70;;;;;;;10.20;59.29;98489.94;5051731;28;20040;-77
2022/05/04 01:02:48;;;;;;;35.63;23.45;;;;;;;10.24;59.17;98492.91;5051742;28;20017;-76
2022/05/04 01:05:14;;;;;;;35.45;21.85;;;;;;;10.28;59.74;98492.03;5051329;28;20029;-76
2022/05/04 01:07:42;;;;;;;33.10;22.60;;;;;;;10.32;59.87;98492.28;5051161;28;20072;-77
2022/05/04 01:10:09;;;;;;;37.22;22.48;;;;;;;10.36;58.84;98492.50;5050991;28;20056;-76
2022/05/04 01:12:35;;;;;;;32.33;21.27;;;;;;;10.39;59.09;98500.16;5051290;28;20056;-76
2022/05/04 01:15:02;;;;;;;33.65;21.17;;;;;;;10.45;58.97;98498.16;5051412;28;20029;-76
2022/05/04 01:17:27;;;;;;;33.65;21.80;;;;;;;10.47;59.12;98499.50;5051255;28;20101;-77
2022/05/04 01:19:55;;;;;;;32.40;21.27;;;;;;;10.51;58.98;98503.28;5051276;28;20099;-77
2022/05/04 01:22:24;;;;;;;33.40;20.48;;;;;;;10.54;59.18;98497.22;5050706;28;20031;-77
2022/05/04 01:24:51;;;;;;;33.25;20.40;;;;;;;10.59;59.36;98501.00;5050621;28;20092;-76
2022/05/04 01:27:16;;;;;;;32.45;20.48;;;;;;;10.62;59.15;98503.97;5050683;28;20017;-77
2022/05/04 01:29:41;;;;;;;36.85;23.80;;;;;;;10.64;59.02;98507.22;5051234;28;20024;-76
2022/05/04 01:32:07;;;;;;;37.45;25.48;;;;;;;10.67;59.28;98500.31;5051219;28;20079;-76
2022/05/04 01:34:33;;;;;;;40.42;25.42;;;;;;;10.72;59.18;98503.00;5050851;28;20445;-77
2022/05/04 01:36:58;;;;;;;40.22;24.27;;;;;;;10.75;58.80;98505.16;5050741;28;20171;-77
2022/05/04 01:39:24;;;;;;;32.47;21.90;;;;;;;10.79;58.63;98503.44;5050803;28;20017;-77
2022/05/04 01:42:13;;;;;;;30.98;20.20;;;;;;;10.83;59.30;98507.25;5050053;28;20047;-76
2022/05/04 01:44:40;;;;;;;31.65;20.67;;;;;;;10.89;59.23;98507.16;5050820;28;20024;-77
2022/05/04 01:47:07;;;;;;;31.50;19.92;;;;;;;10.93;59.00;98505.47;5050315;28;20108;-77
2022/05/04 01:49:32;;;;;;;32.53;20.40;;;;;;;10.96;58.62;98504.88;5050771;28;21307;-76
2022/05/04 01:51:57;;;;;;;37.80;21.95;;;;;;;10.99;58.69;98502.34;5050757;28;20028;-77
2022/05/04 01:54:23;;;;;;;35.00;22.60;;;;;;;11.04;58.46;98503.38;5050334;28;20064;-77
2022/05/04 01:56:49;;;;;;;33.45;22.58;;;;;;;11.07;58.22;98505.53;5050042;28;20025;-76
2022/05/04 01:59:14;;;;;;;32.97;21.25;;;;;;;11.08;57.91;98499.72;5049951;28;20024;-76
2022/05/04 02:01:40;;;;;;;31.42;20.33;;;;;;;11.10;58.10;98502.19;5050667;28;20028;-76
2022/05/04 02:04:06;;;;;;;30.30;20.52;;;;;;;11.12;58.04;98502.69;5050172;28;20393;-77
2022/05/04 02:06:32;;;;;;;30.52;20.17;;;;;;;11.12;58.52;98499.94;5051137;28;20029;-76
2022/05/04 02:08:58;;;;;;;29.15;19.88;;;;;;;11.11;58.55;98492.84;5051178;28;20022;-76
2022/05/04 02:11:24;;;;;;;28.73;19.60;;;;;;;11.09;58.36;98495.88;5051617;28;20044;-76
2022/05/04 02:13:50;;;;;;;35.63;21.77;;;;;;;11.09;58.20;98495.06;5051679;28;20023;-77
2022/05/04 02:16:16;;;;;;;34.63;21.92;;;;;;;11.10;58.74;98502.19;5051347;28;20025;-77
2022/05/04 02:18:42;;;;;;;37.03;24.58;;;;;;;11.10;58.20;98494.75;5051244;28;20040;-77
2022/05/04 02:21:09;;;;;;;44.97;25.40;;;;;;;11.09;58.25;98501.34;5050867;28;20029;-77
2022/05/04 02:23:34;;;;;;;40.15;24.30;;;;;;;11.10;58.10;98499.44;5051173;28;20094;-77
2022/05/04 02:25:59;;;;;;;41.15;25.20;;;;;;;11.08;57.49;98499.72;5051084;28;20029;-77
2022/05/04 02:28:25;;;;;;;42.17;25.50;;;;;;;11.05;58.28;98494.03;5049053;28;20168;-77
2022/05/04 02:30:50;;;;;;;44.17;24.50;;;;;;;11.02;58.49;98503.66;5050938;28;20112;-77
2022/05/04 02:33:16;;;;;;;38.58;23.95;;;;;;;10.97;58.91;98515.53;5050983;28;20476;-77
2022/05/04 02:38:26;;;;;;;34.78;21.95;;;;;;;10.93;58.54;98508.22;5051095;28;20043;-77
2022/05/04 02:40:51;;;;;;;33.78;22.38;;;;;;;10.90;59.00;98517.03;5050962;28;20033;-76
2022/05/04 02:43:17;;;;;;;34.60;22.95;;;;;;;10.87;58.54;98510.19;5050938;28;20035;-77
2022/05/04 02:45:42;;;;;;;34.15;22.20;;;;;;;10.85;58.37;98517.91;5050666;28;20044;-77
2022/05/04 02:48:08;;;;;;;37.72;23.50;;;;;;;10.80;58.53;98523.50;5049753;28;20040;-76
2022/05/04 02:50:34;;;;;;;38.97;22.92;;;;;;;10.75;58.75;98518.06;5049439;28;20040;-76
2022/05/04 02:53:00;;;;;;;34.75;22.48;;;;;;;10.66;58.47;98521.47;5049908;28;20033;-77
2022/05/04 02:55:25;;;;;;;39.08;25.58;;;;;;;10.63;59.11;98524.81;5050141;28;20540;-77
2022/05/04 02:57:51;;;;;;;38.03;24.05;;;;;;;10.65;59.61;98521.75;5049635;28;20029;-77
2022/05/04 03:00:17;;;;;;;34.97;22.80;;;;;;;10.67;59.13;98522.28;5049634;28;20131;-76
2022/05/04 03:02:43;;;;;;;36.78;22.05;;;;;;;10.75;59.22;98529.84;5049810;28;20104;-76
2022/05/04 03:05:10;;;;;;;36.95;21.80;;;;;;;10.80;59.50;98520.75;5049901;28;20461;-77
2022/05/04 03:07:36;;;;;;;35.30;22.17;;;;;;;10.83;58.77;98523.69;5050435;28;20029;-76
2022/05/04 03:10:02;;;;;;;38.28;22.80;;;;;;;10.85;59.91;98520.66;5050570;28;20036;-76
2022/05/04 03:12:27;;;;;;;36.13;22.38;;;;;;;10.85;58.67;98524.22;5050392;28;20029;-76
2022/05/04 03:14:53;;;;;;;35.63;22.70;;;;;;;10.87;58.76;98516.50;5050407;28;20033;-76
2022/05/04 03:17:19;;;;;;;40.20;24.30;;;;;;;10.91;58.65;98529.63;5050233;28;20053;-76
2022/05/04 03:19:45;;;;;;;41.90;25.35;;;;;;;10.91;59.53;98530.44;5050307;28;20029;-76
2022/05/04 03:22:11;;;;;;;42.08;25.95;;;;;;;10.96;59.37;98526.81;5050167;28;20033;-76
2022/05/04 03:24:38;;;;;;;50.28;28.80;;;;;;;10.97;59.54;98537.50;5050314;28;20393;-76
2022/05/04 03:27:04;;;;;;;52.22;29.52;;;;;;;10.95;59.44;98541.66;5050426;28;20461;-76
2022/05/04 03:29:30;;;;;;;51.80;29.77;;;;;;;10.93;58.99;98543.88;5049952;28;20052;-76
2022/05/04 03:31:55;;;;;;;52.50;29.90;;;;;;;10.91;58.57;98559.81;5048462;28;20484;-76
2022/05/04 03:34:20;;;;;;;49.35;29.13;;;;;;;10.94;59.01;98542.75;5048840;28;20035;-76
2022/05/04 03:36:46;;;;;;;46.53;27.67;;;;;;;10.97;59.42;98547.66;5049920;28;20028;-76
2022/05/04 03:39:11;;;;;;;48.05;27.88;;;;;;;10.99;59.53;98556.41;5049907;28;20029;-76
2022/05/04 03:41:38;;;;;;;47.35;27.73;;;;;;;11.00;59.67;98550.63;5050492;28;20096;-76
2022/05/04 03:44:05;;;;;;;47.10;27.20;;;;;;;11.02;59.62;98555.78;5050209;28;20075;-76
2022/05/04 03:46:44;;;;;;;41.55;26.00;;;;;;;11.07;59.62;98552.19;5048826;28;20382;-76
2022/05/04 03:49:10;;;;;;;41.60;25.20;;;;;;;11.07;58.80;98552.19;5049869;28;20036;-76
2022/05/04 03:51:36;;;;;;;48.30;25.90;;;;;;;11.10;59.21;98554.34;5050122;28;20032;-76
2022/05/04 03:54:02;;;;;;;42.92;25.08;;;;;;;11.14;59.55;98569.09;5050212;28;20078;-76
2022/05/04 03:56:27;;;;;;;43.47;25.63;;;;;;;11.10;59.01;98568.06;5049778;28;20405;-76
2022/05/04 03:58:53;;;;;;;57.15;32.22;;;;;;;11.08;59.19;98564.78;5049653;28;20555;-76
2022/05/04 04:01:18;;;;;;;56.70;31.60;;;;;;;11.06;59.82;98561.53;5049856;28;20029;-76
2022/05/04 04:03:44;;;;;;;54.20;31.17;;;;;;;11.02;59.33;98567.59;5049892;28;20108;-76
2022/05/04 04:06:10;;;;;;;52.38;29.92;;;;;;;10.95;59.35;98563.59;5050714;28;20025;-76
2022/05/04 04:08:35;;;;;;;52.35;30.70;;;;;;;10.89;59.65;98557.34;5052509;28;20036;-76
2022/05/04 04:11:01;;;;;;;49.90;29.25;;;;;;;10.85;59.81;98562.63;5053241;28;20028;-76
2022/05/04 04:13:27;;;;;;;50.50;28.98;;;;;;;10.82;60.05;98565.13;5052918;28;20052;-76
2022/05/04 04:15:54;;;;;;;45.80;27.17;;;;;;;10.84;60.69;98571.13;5053528;28;20092;-76
2022/05/04 04:18:24;;;;;;;47.60;26.95;;;;;;;10.80;59.61;98564.63;5053105;28;20052;-76
2022/05/04 04:23:34;;;;;;;48.90;29.45;;;;;;;10.85;60.38;98570.88;5053967;28;20071;-76
2022/05/04 04:26:01;;;;;;;50.35;30.88;;;;;;;10.92;60.30;98581.47;5053680;28;20792;-77
2022/05/04 04:28:28;;;;;;;47.55;28.52;;;;;;;10.92;60.44;98580.66;5052833;28;20039;-76
2022/05/04 04:30:53;;;;;;;48.10;29.05;;;;;;;10.91;60.76;98582.56;5053487;28;20033;-76
2022/05/04 04:33:19;;;;;;;52.13;28.63;;;;;;;10.90;60.12;98593.84;5053207;28;20542;-76
2022/05/04 04:35:44;;;;;;;44.80;26.85;;;;;;;10.89;61.48;98592.22;5053282;28;20021;-76
2022/05/04 04:38:10;;;;;;;59.95;34.10;;;;;;;10.90;60.12;98591.13;5052526;28;20017;-77
2022/05/04 04:40:35;;;;;;;52.60;30.83;;;;;;;10.91;60.75;98593.53;5053258;28;20143;-76
2022/05/04 04:43:01;;;;;;;49.60;28.38;;;;;;;10.93;61.25;98594.06;5053478;28;20363;-76
2022/05/04 04:45:27;;;;;;;45.08;25.83;;;;;;;10.98;61.46;98594.00;5053557;28;20118;-77
2022/05/04 04:47:53;;;;;;;44.33;26.75;;;;;;;11.06;60.67;98605.44;5053055;28;20036;-76
2022/05/04 04:50:18;;;;;;;50.28;31.15;;;;;;;11.15;61.08;98614.66;5052772;28;20441;-76
2022/05/04 04:52:44;;;;;;;49.17;31.10;;;;;;;11.19;61.35;98603.88;5052905;28;20469;-76
2022/05/04 04:55:09;;;;;;;44.97;28.30;;;;;;;11.22;61.41;98604.09;5052940;28;20386;-76
2022/05/04 04:57:35;;;;;;;48.20;29.08;;;;;;;11.32;60.80;98601.19;5052545;28;20021;-76
2022/05/04 05:00:00;;;;;;;44.50;26.98;;;;;;;11.41;61.40;98590.34;5052790;28;20037;-76
2022/05/04 05:02:26;;;;;;;44.80;27.23;;;;;;;11.51;61.42;98594.06;5052535;28;20032;-76
2022/05/04 05:04:51;;;;;;;47.08;27.60;;;;;;;11.58;61.97;98595.31;5052567;28;20029;-76
2022/05/04 05:07:17;;;;;;;46.35;27.65;;;;;;;11.64;61.29;98581.47;5052570;28;20029;-76
2022/05/04 05:09:42;;;;;;;43.15;27.45;;;;;;;11.69;61.28;98587.72;5052389;28;20061;-77
2022/05/04 05:12:08;;;;;;;44.17;27.23;;;;;;;11.75;61.32;98585.69;5052403;28;20021;-77
2022/05/04 05:17:18;;;;;;;44.75;29.17;;;;;;;11.75;61.46;98589.28;5052327;28;20134;-77
2022/05/04 05:19:43;;;;;;;42.97;28.40;;;;;;;11.77;61.98;98587.03;5052323;28;20552;-76
2022/05/04 05:22:09;;;;;;;44.35;29.25;;;;;;;11.81;61.53;98586.44;5052426;28;20021;-76
2022/05/04 05:24:34;;;;;;;38.58;26.42;;;;;;;11.87;61.72;98593.47;5053076;28;20472;-76
2022/05/04 05:26:59;;;;;;;42.38;27.17;;;;;;;11.93;61.86;98589.50;5052381;28;20033;-76
2022/05/04 05:29:25;;;;;;;38.60;26.75;;;;;;;12.00;61.53;98589.16;5052142;28;20083;-76
2022/05/04 05:31:50;;;;;;;37.97;26.85;;;;;;;12.10;61.23;98582.66;5051020;28;20033;-76
2022/05/04 05:34:16;;;;;;;40.65;27.40;;;;;;;12.18;61.47;98580.00;5052191;28;20461;-76
2022/05/04 05:36:41;;;;;;;40.30;26.80;;;;;;;12.24;61.82;98586.22;5052290;28;20079;-76
2022/05/04 05:39:06;;;;;;;45.28;29.13;;;;;;;12.34;61.49;98580.53;5052090;28;20072;-76
2022/05/04 05:41:32;;;;;;;42.85;28.10;;;;;;;12.42;61.90;98581.78;5052415;28;20041;-76
2022/05/04 05:43:57;;;;;;;40.50;26.75;;;;;;;12.53;61.99;98579.63;5052293;28;20044;-76
2022/05/04 05:46:23;;;;;;;39.00;26.67;;;;;;;12.62;62.27;98576.97;5051842;28;20144;-76
2022/05/04 05:48:48;;;;;;;37.20;26.42;;;;;;;12.74;62.17;98584.69;5052088;28;20552;-76
2022/05/04 05:51:13;;;;;;;40.20;27.00;;;;;;;12.90;62.30;98579.66;5051975;28;20029;-76
2022/05/04 05:53:39;;;;;;;36.78;25.73;;;;;;;13.05;62.00;98584.84;5052245;28;20051;-75
2022/05/04 05:56:05;;;;;;;42.65;27.95;;;;;;;13.19;62.04;98581.25;5052530;28;20484;-76
2022/05/04 05:58:30;;;;;;;40.13;27.15;;;;;;;13.27;62.28;98582.44;5051376;28;20171;-76
2022/05/04 06:00:56;;;;;;;42.60;28.45;;;;;;;13.35;61.90;98578.94;5051833;28;20028;-76
2022/05/04 06:03:22;;;;;;;40.70;29.35;;;;;;;13.46;61.98;98582.31;5051617;28;20021;-76
2022/05/04 06:05:47;;;;;;;46.40;28.45;;;;;;;13.62;62.01;98585.50;5051224;28;20109;-76
2022/05/04 06:08:13;;;;;;;32.78;23.65;;;;;;;13.76;61.76;98585.44;5050864;28;20028;-76
2022/05/04 06:10:39;;;;;;;34.75;23.25;;;;;;;13.86;61.36;98584.38;5051279;28;20055;-76
2022/05/04 06:13:05;;;;;;;37.72;25.40;;;;;;;13.97;61.11;98591.22;5051655;28;20021;-76
2022/05/04 06:15:30;;;;;;;36.55;24.80;;;;;;;14.05;61.21;98592.44;5051462;28;20067;-76
2022/05/04 06:17:56;;;;;;;38.95;24.95;;;;;;;14.12;60.80;98599.13;5051141;28;20021;-76
2022/05/04 06:20:23;;;;;;;34.95;26.38;;;;;;;14.16;60.74;98593.75;5050928;28;20493;-76
2022/05/04 06:22:49;;;;;;;39.42;26.65;;;;;;;14.19;60.47;98603.38;5050947;28;20024;-76
2022/05/04 06:25:14;;;;;;;33.20;24.70;;;;;;;14.17;60.48;98600.09;5051401;28;20029;-76
2022/05/04 06:27:40;;;;;;;42.33;25.00;;;;;;;14.17;60.49;98600.91;5050519;28;20082;-76
2022/05/04 06:35:34;;;;;;;37.13;26.80;;;;;;;14.09;60.48;98594.22;5050688;28;20031;-76
2022/05/04 06:37:59;;;;;;;39.28;26.00;;;;;;;14.06;59.80;98599.56;5050736;28;20025;-76
2022/05/04 06:40:25;;;;;;;39.03;26.00;;;;;;;14.01;60.53;98596.94;5050545;28;20025;-76
2022/05/04 06:42:50;;;;;;;38.15;24.95;;;;;;;13.99;60.30;98595.31;5050825;28;20048;-76
2022/05/04 06:45:15;;;;;;;38.67;27.02;;;;;;;13.98;60.46;98601.97;5050022;28;20152;-76
2022/05/04 06:47:41;;;;;;;39.05;26.85;;;;;;;14.03;60.31;98597.44;5050319;28;20385;-75
2022/05/04 06:50:07;;;;;;;39.20;27.75;;;;;;;14.07;60.45;98601.16;5050504;28;20359;-76
2022/05/04 06:52:33;;;;;;;38.80;27.33;;;;;;;14.13;60.47;98595.22;5050304;28;20021;-76
2022/05/04 06:54:58;;;;;;;39.10;27.45;;;;;;;14.22;60.55;98599.97;5050610;28;20067;-76
2022/05/04 06:57:24;;;;;;;38.78;27.30;;;;;;;14.29;60.45;98603.91;5049284;28;20028;-75
2022/05/04 06:59:50;;;;;;;37.83;25.17;;;;;;;14.36;60.55;98606.19;5049513;28;20056;-76
2022/05/04 07:02:16;;;;;;;36.97;26.38;;;;;;;14.42;60.30;98607.69;5048646;28;20029;-76
2022/05/04 07:04:41;;;;;;;33.65;24.00;;;;;;;14.50;60.49;98608.84;5049950;28;20104;-76
2022/05/04 07:07:07;;;;;;;32.00;23.50;;;;;;;14.61;60.49;98609.38;5049892;28;20028;-76
2022/05/04 07:09:33;;;;;;;31.10;21.45;;;;;;;14.70;60.11;98603.91;5049838;28;20075;-75
2022/05/04 07:11:59;;;;;;;25.45;20.05;;;;;;;14.81;60.37;98607.19;5050435;28;20021;-75
2022/05/04 07:14:25;;;;;;;26.77;20.25;;;;;;;14.91;60.06;98614.34;5050010;28;20040;-75
2022/05/04 07:16:50;;;;;;;24.83;19.15;;;;;;;15.01;59.89;98608.53;5049788;28;20020;-76
2022/05/04 07:19:16;;;;;;;32.58;21.20;;;;;;;15.12;59.64;98611.78;5049504;28;20452;-75
2022/05/04 07:21:48;;;;;;;24.38;17.35;;;;;;;15.22;59.32;98614.25;5050312;28;20025;-75
2022/05/04 07:24:13;;;;;;;23.35;17.20;;;;;;;15.35;59.66;98612.47;5050113;28;20028;-74
2022/05/04 07:26:40;;;;;;;21.33;16.52;;;;;;;15.39;59.17;98616.22;5050047;28;20029;-74
2022/05/04 07:29:06;;;;;;;18.58;14.70;;;;;;;15.47;58.70;98622.91;5049551;28;20427;-73
2022/05/04 07:31:31;;;;;;;18.70;14.70;;;;;;;15.55;58.13;98619.28;5047919;28;20057;-74
2022/05/04 07:33:56;;;;;;;19.90;15.02;;;;;;;15.63;58.51;98618.50;5049587;28;20036;-75
2022/05/04 07:36:22;;;;;;;19.23;15.70;;;;;;;15.74;57.92;98615.41;5048852;28;20385;-76
2022/05/04 07:38:47;;;;;;;19.98;15.40;;;;;;;15.85;57.87;98615.88;5048136;28;20127;-73
2022/05/04 07:43:57;;;;;;;20.88;15.18;;;;;;;16.02;57.09;98615.06;5056860;28;20040;-73
2022/05/04 07:46:22;;;;;;;19.15;14.25;;;;;;;16.11;57.30;98621.38;5052798;28;20048;-75
2022/05/04 07:48:48;;;;;;;19.08;14.18;;;;;;;16.23;57.33;98620.69;5047525;28;20115;-76
2022/05/04 07:51:13;;;;;;;18.00;14.18;;;;;;;16.33;57.17;98619.50;5048730;28;20484;-75
2022/05/04 07:53:39;;;;;;;20.52;15.18;;;;;;;16.37;56.35;98626.84;5052138;28;20481;-74
2022/05/04 07:56:05;;;;;;;17.30;13.88;;;;;;;16.36;56.43;98627.16;5054507;28;20143;-76
2022/05/04 07:58:30;;;;;;;20.65;13.00;;;;;;;16.41;56.06;98628.94;5051582;28;20025;-73
2022/05/04 08:06:24;;;;;;;16.08;11.70;;;;;;;16.68;55.33;98627.72;5052270;28;20516;-73
2022/05/04 08:08:50;;;;;;;18.20;12.68;;;;;;;16.75;55.18;98621.63;5051170;28;20037;-72
2022/05/04 08:11:16;;;;;;;16.75;12.02;;;;;;;16.83;55.05;98626.31;5047333;28;20041;-71
2022/05/04 08:13:41;;;;;;;15.93;11.48;;;;;;;16.86;54.45;98633.97;5050581;28;20043;-72
2022/05/04 08:16:10;;;;;;;15.10;11.45;;;;;;;16.92;54.10;98629.03;5049437;28;20027;-72
2022/05/04 08:18:37;;;;;;;16.75;11.48;;;;;;;16.98;54.03;98624.97;5052955;28;20039;-73
2022/05/04 08:21:03;;;;;;;14.13;11.27;;;;;;;17.04;53.74;98628.34;5052292;28;20079;-76
2022/05/04 08:23:28;;;;;;;15.93;11.25;;;;;;;17.08;53.25;98626.53;5047334;28;20030;-73
2022/05/04 08:25:54;;;;;;;16.25;11.65;;;;;;;17.17;53.55;98624.53;5051003;28;20475;-74
2022/05/04 08:28:19;;;;;;;15.90;12.00;;;;;;;17.26;53.21;98625.28;5048876;28;20037;-76
2022/05/04 08:30:45;;;;;;;16.60;10.77;;;;;;;17.37;52.90;98625.69;5052233;28;20389;-75
2022/05/04 08:33:10;;;;;;;14.20;11.25;;;;;;;17.46;52.73;98627.59;5053901;28;20049;-72
2022/05/04 08:35:37;;;;;;;13.60;10.95;;;;;;;17.47;52.21;98621.69;5053836;28;20071;-74
2022/05/04 08:38:02;;;;;;;14.43;12.15;;;;;;;17.47;50.27;98630.00;5050609;28;20461;-75
2022/05/04 08:40:29;;;;;;;16.30;11.70;;;;;;;17.46;50.51;98620.06;5050962;28;20039;-75
2022/05/04 08:42:57;;;;;;;15.55;11.05;;;;;;;17.47;50.45;98631.97;5049288;28;20033;-75
2022/05/04 08:45:23;;;;;;;15.02;11.25;;;;;;;17.58;50.86;98624.84;5052318;28;20041;-75
2022/05/04 08:47:49;;;;;;;12.52;10.57;;;;;;;17.71;51.13;98626.53;5051646;28;20477;-76
2022/05/04 08:50:17;;;;;;;13.57;10.90;;;;;;;17.77;50.08;98626.34;5052049;28;20060;-75
2022/05/04 08:52:51;;;;;;;15.02;11.50;;;;;;;17.80;48.78;98625.66;5050818;28;20590;-76
2022/05/04 08:55:17;;;;;;;13.52;11.35;;;;;;;17.81;49.27;98630.84;5052299;28;20075;-75
2022/05/04 08:57:43;;;;;;;17.38;11.73;;;;;;;17.87;49.07;98628.69;5045340;28;20485;-73
2022/05/04 09:00:10;;;;;;;14.90;11.23;;;;;;;17.97;49.16;98627.47;5043313;28;20079;-76
2022/05/04 09:02:37;;;;;;;14.60;11.52;;;;;;;18.08;49.13;98630.63;5050947;28;20087;-74
2022/05/04 09:05:19;;;;;;;16.42;11.10;;;;;;;18.13;48.28;98625.69;5052609;28;20028;-72
2022/05/04 09:07:47;;;;;;;15.25;11.35;;;;;;;18.18;47.85;98627.44;5050794;28;20350;-81
2022/05/04 09:10:26;;;;;;;14.77;11.77;;;;;;;18.25;47.15;98626.84;5050801;28;20106;-74
2022/05/04 09:12:55;;;;;;;14.03;11.50;;;;;;;18.38;47.62;98617.41;5050470;28;20029;-73
2022/05/04 09:15:26;;;;;;;15.85;11.05;;;;;;;18.58;47.61;98612.09;5049733;28;20025;-72
2022/05/04 09:18:03;;;;;;;14.48;10.77;;;;;;;18.83;47.73;98606.56;5051367;28;20029;-76
2022/05/04 09:20:49;;;;;;;12.88;10.73;;;;;;;19.13;47.30;98609.94;5049156;28;20036;-76
2022/05/04 09:23:28;;;;;;;16.17;11.52;;;;;;;19.43;46.86;98617.13;5048582;28;20485;-78
2022/05/04 09:25:54;;;;;;;11.23;9.80;;;;;;;19.69;46.90;98610.34;5050634;28;20025;-74
2022/05/04 09:28:21;;;;;;;13.00;10.50;;;;;;;19.88;46.56;98609.69;5050931;28;20079;-73
2022/05/04 09:30:51;;;;;;;19.08;10.80;;;;;;;20.12;46.21;98608.78;5049834;28;20025;-75
2022/05/04 09:33:28;;;;;;;12.82;10.82;;;;;;;20.38;46.46;98601.88;5050663;28;20116;-77
2022/05/04 09:35:58;;;;;;;20.00;11.07;;;;;;;20.53;44.97;98601.09;5048611;28;20025;-75
2022/05/04 09:46:44;;;;;;;15.88;10.35;;;;;;;20.05;44.38;98608.59;5051273;28;20056;-78
2022/05/04 09:49:20;;;;;;;12.88;9.10;;;;;;;19.83;43.95;98605.16;5050815;28;20112;-78
2022/05/04 09:51:51;;;;;;;14.77;9.20;;;;;;;19.59;43.52;98612.47;5048017;28;20059;-77
2022/05/04 09:54:27;;;;;;;13.52;9.77;;;;;;;19.42;43.71;98608.00;5050551;28;20089;-79
2022/05/04 09:57:01;;;;;;;15.10;10.30;;;;;;;19.29;43.67;98603.63;5051398;28;20029;-81
2022/05/04 09:59:31;;;;;;;10.98;9.05;;;;;;;19.15;43.35;98618.72;5051258;28;20119;-78
2022/05/04 10:01:59;;;;;;;20.58;8.85;;;;;;;19.02;43.66;98609.56;5051664;28;20025;-78
2022/05/04 10:04:26;;;;;;;17.15;8.15;;;;;;;18.92;43.67;98604.47;5050635;28;20041;-78
2022/05/04 10:06:53;;;;;;;16.98;8.50;;;;;;;18.82;43.81;98611.28;5051416;28;20815;-77
2022/05/04 10:09:20;;;;;;;15.60;8.68;;;;;;;18.71;43.73;98621.28;5050741;28;20049;-78
2022/05/04 10:11:46;;;;;;;11.68;8.18;;;;;;;18.60;43.75;98615.34;5050622;28;20033;-79
2022/05/04 10:14:15;;;;;;;16.58;9.05;;;;;;;18.54;44.06;98614.75;5049811;28;20028;-78
2022/05/04 10:16:52;;;;;;;14.20;8.20;;;;;;;18.47;44.19;98608.19;5050488;28;20025;-79
2022/05/04 10:19:47;;;;;;;11.57;7.78;;;;;;;18.39;43.88;98616.25;5046245;28;20037;-78
2022/05/04 10:22:20;;;;;;;9.32;7.93;;;;;;;18.33;44.28;98614.06;5049217;28;20049;-79
2022/05/04 10:24:46;;;;;;;16.60;9.35;;;;;;;18.22;44.22;98620.03;5048783;28;20028;-78
2022/05/04 10:27:21;;;;;;;14.50;9.27;;;;;;;18.07;44.40;98626.25;5049538;28;20021;-78
2022/05/04 10:32:45;;;;;;;17.42;10.60;;;;;;;17.55;46.87;98629.13;5048629;28;20036;-78
2022/05/04 10:35:14;;;;;;;30.38;16.88;;;;;;;17.35;48.53;98638.25;5049552;28;20028;-75
2022/05/04 10:37:58;;;;;;;84.30;34.80;;;;;;;17.10;48.66;98643.63;5049173;28;20442;-76
2022/05/04 10:40:35;;;;;;;33.42;17.67;;;;;;;16.89;49.15;98647.16;5049287;28;20100;-74
2022/05/04 10:43:03;;;;;;;22.75;11.85;;;;;;;16.72;50.27;98650.00;5049397;28;20033;-75
2022/05/04 10:45:37;;;;;;;14.88;10.70;;;;;;;16.63;50.73;98656.38;5049574;28;20103;-75
2022/05/04 10:48:20;;;;;;;16.63;11.18;;;;;;;16.63;51.23;98664.69;5049261;28;20142;-75
2022/05/04 10:50:55;;;;;;;19.25;12.18;;;;;;;16.66;52.10;98652.16;5049100;28;20032;-76
2022/05/04 10:53:25;;;;;;;17.52;10.68;;;;;;;16.63;52.18;98650.03;5050541;28;20052;-75
2022/05/04 10:56:11;;;;;;;11.63;9.57;;;;;;;16.61;52.05;98642.06;5047203;28;20037;-73
2022/05/04 10:58:36;;;;;;;12.90;9.10;;;;;;;16.65;52.38;98633.91;5045862;28;20021;-75
2022/05/04 11:01:23;;;;;;;12.32;9.00;;;;;;;16.70;52.24;98624.59;5050241;28;20028;-75
2022/05/04 11:04:00;;;;;;;13.48;11.13;;;;;;;16.72;52.42;98623.09;5047805;28;20036;-76
2022/05/04 11:06:30;;;;;;;15.38;11.48;;;;;;;16.84;52.88;98622.41;5048999;28;20040;-75
2022/05/04 11:08:59;;;;;;;13.30;11.35;;;;;;;17.01;53.35;98615.16;5048852;28;20021;-76
2022/05/04 11:11:26;;;;;;;12.48;11.13;;;;;;;17.26;53.47;98625.28;5049459;28;20028;-74
2022/05/04 11:13:52;;;;;;;11.27;9.75;;;;;;;17.50;53.29;98621.00;5050548;28;20025;-74
2022/05/04 11:16:22;;;;;;;12.55;9.48;;;;;;;17.80;53.29;98618.13;5049439;28;20033;-75
2022/05/04 11:18:48;;;;;;;9.95;8.95;;;;;;;18.12;53.47;98612.97;5050279;28;20025;-77
2022/05/04 11:21:15;;;;;;;10.52;9.07;;;;;;;18.32;53.24;98618.00;5049826;28;20112;-75
2022/05/04 11:23:51;;;;;;;10.05;8.65;;;;;;;18.44;53.17;98613.25;5051707;28;20437;-75
2022/05/04 11:26:24;;;;;;;11.60;9.20;;;;;;;18.53;52.88;98606.78;5050032;28;20029;-78
2022/05/04 11:28:51;;;;;;;13.75;10.88;;;;;;;18.62;52.71;98607.47;5053153;28;20036;-77
2022/05/04 11:31:18;;;;;;;11.27;9.32;;;;;;;18.70;52.72;98603.78;5051733;28;20029;-77
2022/05/04 11:33:45;;;;;;;11.40;9.95;;;;;;;18.77;52.54;98607.94;5049891;28;20041;-79
2022/05/04 11:36:12;;;;;;;10.57;9.07;;;;;;;18.78;52.33;98598.44;5049658;28;20565;-77
2022/05/04 11:38:38;;;;;;;10.40;8.77;;;;;;;18.69;51.91;98601.34;5048144;28;20140;-76
2022/05/04 11:41:03;;;;;;;11.60;10.07;;;;;;;18.66;52.28;98602.84;5050920;28;20104;-75
2022/05/04 11:43:35;;;;;;;10.48;9.07;;;;;;;18.64;52.21;98607.16;5049345;28;20025;-73
2022/05/04 11:46:06;;;;;;;11.32;9.23;;;;;;;18.59;52.40;98597.88;5048792;28;20041;-76
2022/05/04 11:48:34;;;;;;;12.32;9.85;;;;;;;18.57;52.28;98599.38;5048541;28;20072;-75
2022/05/04 11:51:00;;;;;;;12.57;9.23;;;;;;;18.54;52.31;98600.09;5048606;28;20049;-77
2022/05/04 11:53:25;;;;;;;11.95;9.48;;;;;;;18.47;51.46;98599.84;5048643;28;20135;-75
2022/05/04 11:55:51;;;;;;;11.52;9.35;;;;;;;18.39;51.80;98593.22;5048150;28;20494;-74